sensor_id;sensor_type;location;lat;lon;timestamp;P1;durP1;ratioP1;P2;durP2;ratioP2
8556;SDS011;4316;53.840;10.762;2023-05-10T00:02:06;9.57;;;3.00;;
8556;SDS011;4316;53.840;10.762;2023-05-10T00:04:32;7.20;;;3.10;;
8556;SDS011;4316;53.840;10.762;2023-05-10T00:06:58;8.37;;;2.90;;
8556;SDS011;4316;53.840;10.762;2023-05-10T00:09:23;3.17;;;2.60;;
8556;SDS011;4316;53.840;10.762;2023-05-10T00:11:49;5.27;;;2.70;;
8556;SDS011;4316;53.840;10.762;2023-05-10T00:14:15;11.87;;;3.07;;
8556;SDS011;4316;53.840;10.762;2023-05-10T00:16:40;5.13;;;3.10;;
8556;SDS011;4316;53.840;10.762;2023-05-10T00:19:06;9.93;;;3.03;;
8556;SDS011;4316;53.840;10.762;2023-05-10T00:21:32;9.50;;;3.43;;
8556;SDS011;4316;53.840;10.762;2023-05-10T00:23:58;7.00;;;3.27;;
8556;SDS011;4316;53.840;10.762;2023-05-10T00:26:24;11.93;;;3.60;;
8556;SDS011;4316;53.840;10.762;2023-05-10T00:28:52;3.33;;;2.90;;
8556;SDS011;4316;53.840;10.762;2023-05-10T00:31:18;6.03;;;3.00;;
8556;SDS011;4316;53.840;10.762;2023-05-10T00:33:44;6.20;;;2.60;;
8556;SDS011;4316;53.840;10.762;2023-05-10T00:36:10;3.60;;;3.20;;
8556;SDS011;4316;53.840;10.762;2023-05-10T00:38:36;13.23;;;3.60;;
8556;SDS011;4316;53.840;10.762;2023-05-10T00:41:02;7.37;;;3.00;;
8556;SDS011;4316;53.840;10.762;2023-05-10T00:43:30;6.13;;;2.83;;
8556;SDS011;4316;53.840;10.762;2023-05-10T00:45:55;6.60;;;3.37;;
8556;SDS011;4316;53.840;10.762;2023-05-10T00:48:21;6.67;;;3.13;;
8556;SDS011;4316;53.840;10.762;2023-05-10T00:50:47;4.63;;;3.27;;
8556;SDS011;4316;53.840;10.762;2023-05-10T00:53:13;5.60;;;2.90;;
8556;SDS011;4316;53.840;10.762;2023-05-10T00:55:39;5.70;;;2.77;;
8556;SDS011;4316;53.840;10.762;2023-05-10T00:58:05;9.50;;;3.00;;
8556;SDS011;4316;53.840;10.762;2023-05-10T01:00:32;5.30;;;3.07;;
8556;SDS011;4316;53.840;10.762;2023-05-10T01:02:58;3.30;;;3.00;;
8556;SDS011;4316;53.840;10.762;2023-05-10T01:05:23;5.43;;;3.60;;
8556;SDS011;4316;53.840;10.762;2023-05-10T01:07:49;6.63;;;2.80;;
8556;SDS011;4316;53.840;10.762;2023-05-10T01:10:15;5.83;;;2.93;;
8556;SDS011;4316;53.840;10.762;2023-05-10T01:12:42;6.33;;;2.77;;
8556;SDS011;4316;53.840;10.762;2023-05-10T01:15:10;8.37;;;3.50;;
8556;SDS011;4316;53.840;10.762;2023-05-10T01:17:37;3.20;;;2.90;;
8556;SDS011;4316;53.840;10.762;2023-05-10T01:20:04;3.97;;;2.57;;
8556;SDS011;4316;53.840;10.762;2023-05-10T01:33:25;4.33;;;3.20;;
8556;SDS011;4316;53.840;10.762;2023-05-10T01:36:03;9.70;;;2.93;;
8556;SDS011;4316;53.840;10.762;2023-05-10T01:38:46;14.97;;;3.10;;
8556;SDS011;4316;53.840;10.762;2023-05-10T01:44:27;7.20;;;2.60;;
8556;SDS011;4316;53.840;10.762;2023-05-10T01:47:14;5.63;;;3.50;;
8556;SDS011;4316;53.840;10.762;2023-05-10T01:49:47;4.40;;;2.80;;
8556;SDS011;4316;53.840;10.762;2023-05-10T01:52:33;8.73;;;2.97;;
8556;SDS011;4316;53.840;10.762;2023-05-10T01:55:07;5.47;;;3.20;;
8556;SDS011;4316;53.840;10.762;2023-05-10T01:57:37;5.23;;;3.13;;
8556;SDS011;4316;53.840;10.762;2023-05-10T02:00:04;3.80;;;3.03;;
8556;SDS011;4316;53.840;10.762;2023-05-10T02:02:40;7.33;;;3.03;;
8556;SDS011;4316;53.840;10.762;2023-05-10T02:05:10;5.93;;;3.40;;
8556;SDS011;4316;53.840;10.762;2023-05-10T02:07:38;17.40;;;3.53;;
8556;SDS011;4316;53.840;10.762;2023-05-10T02:10:06;5.10;;;3.43;;
8556;SDS011;4316;53.840;10.762;2023-05-10T02:12:52;6.53;;;3.17;;
8556;SDS011;4316;53.840;10.762;2023-05-10T02:15:22;9.73;;;3.20;;
8556;SDS011;4316;53.840;10.762;2023-05-10T02:17:50;4.30;;;3.33;;
8556;SDS011;4316;53.840;10.762;2023-05-10T02:20:17;7.73;;;3.30;;
8556;SDS011;4316;53.840;10.762;2023-05-10T02:22:44;5.17;;;3.17;;
8556;SDS011;4316;53.840;10.762;2023-05-10T02:25:12;6.17;;;3.73;;
8556;SDS011;4316;53.840;10.762;2023-05-10T02:27:40;6.57;;;3.60;;
8556;SDS011;4316;53.840;10.762;2023-05-10T02:30:07;7.37;;;3.50;;
8556;SDS011;4316;53.840;10.762;2023-05-10T02:32:34;8.93;;;3.17;;
8556;SDS011;4316;53.840;10.762;2023-05-10T02:35:01;9.43;;;3.17;;
8556;SDS011;4316;53.840;10.762;2023-05-10T02:37:28;6.13;;;3.37;;
8556;SDS011;4316;53.840;10.762;2023-05-10T02:39:55;9.13;;;3.20;;
8556;SDS011;4316;53.840;10.762;2023-05-10T02:42:23;7.23;;;2.93;;
8556;SDS011;4316;53.840;10.762;2023-05-10T02:44:52;4.73;;;3.30;;
8556;SDS011;4316;53.840;10.762;2023-05-10T02:47:21;6.43;;;3.67;;
8556;SDS011;4316;53.840;10.762;2023-05-10T02:49:47;4.53;;;3.50;;
8556;SDS011;4316;53.840;10.762;2023-05-10T02:52:14;9.63;;;3.23;;
8556;SDS011;4316;53.840;10.762;2023-05-10T02:54:45;7.30;;;3.20;;
8556;SDS011;4316;53.840;10.762;2023-05-10T02:57:17;4.90;;;3.67;;
8556;SDS011;4316;53.840;10.762;2023-05-10T02:59:50;4.80;;;3.30;;
8556;SDS011;4316;53.840;10.762;2023-05-10T03:02:16;6.70;;;3.27;;
8556;SDS011;4316;53.840;10.762;2023-05-10T03:04:41;4.83;;;2.97;;
8556;SDS011;4316;53.840;10.762;2023-05-10T03:07:07;4.60;;;3.07;;
8556;SDS011;4316;53.840;10.762;2023-05-10T03:09:33;5.37;;;4.17;;
8556;SDS011;4316;53.840;10.762;2023-05-10T03:12:01;4.80;;;3.60;;
8556;SDS011;4316;53.840;10.762;2023-05-10T03:17:14;14.27;;;3.43;;
8556;SDS011;4316;53.840;10.762;2023-05-10T03:19:55;7.57;;;3.60;;
8556;SDS011;4316;53.840;10.762;2023-05-10T03:22:26;4.60;;;3.20;;
8556;SDS011;4316;53.840;10.762;2023-05-10T03:25:00;7.23;;;3.63;;
8556;SDS011;4316;53.840;10.762;2023-05-10T03:27:32;7.07;;;3.83;;
8556;SDS011;4316;53.840;10.762;2023-05-10T03:29:59;8.70;;;4.10;;
8556;SDS011;4316;53.840;10.762;2023-05-10T03:32:28;3.57;;;3.27;;
8556;SDS011;4316;53.840;10.762;2023-05-10T03:34:56;3.83;;;3.53;;
8556;SDS011;4316;53.840;10.762;2023-05-10T03:37:23;4.23;;;3.20;;
8556;SDS011;4316;53.840;10.762;2023-05-10T03:39:49;10.87;;;3.70;;
8556;SDS011;4316;53.840;10.762;2023-05-10T03:42:14;10.63;;;4.20;;
8556;SDS011;4316;53.840;10.762;2023-05-10T03:44:43;7.27;;;3.77;;
8556;SDS011;4316;53.840;10.762;2023-05-10T03:47:08;3.70;;;3.40;;
8556;SDS011;4316;53.840;10.762;2023-05-10T03:49:34;6.13;;;3.70;;
8556;SDS011;4316;53.840;10.762;2023-05-10T03:52:00;3.87;;;3.50;;
8556;SDS011;4316;53.840;10.762;2023-05-10T03:54:26;4.97;;;3.40;;
8556;SDS011;4316;53.840;10.762;2023-05-10T03:56:51;4.80;;;3.80;;
8556;SDS011;4316;53.840;10.762;2023-05-10T03:59:18;10.83;;;3.67;;
8556;SDS011;4316;53.840;10.762;2023-05-10T04:01:44;3.40;;;3.10;;
8556;SDS011;4316;53.840;10.762;2023-05-10T04:04:09;6.63;;;3.83;;
8556;SDS011;4316;53.840;10.762;2023-05-10T04:06:35;5.53;;;3.73;;
8556;SDS011;4316;53.840;10.762;2023-05-10T04:09:00;3.80;;;3.50;;
8556;SDS011;4316;53.840;10.762;2023-05-10T04:11:29;6.43;;;3.67;;
8556;SDS011;4316;53.840;10.762;2023-05-10T04:13:54;3.93;;;3.50;;
8556;SDS011;4316;53.840;10.762;2023-05-10T04:16:20;6.80;;;3.53;;
8556;SDS011;4316;53.840;10.762;2023-05-10T04:18:45;6.40;;;3.43;;
8556;SDS011;4316;53.840;10.762;2023-05-10T04:21:12;4.20;;;3.77;;
8556;SDS011;4316;53.840;10.762;2023-05-10T04:23:38;8.80;;;3.60;;
8556;SDS011;4316;53.840;10.762;2023-05-10T04:26:04;5.23;;;3.90;;
8556;SDS011;4316;53.840;10.762;2023-05-10T04:28:29;5.13;;;3.77;;
8556;SDS011;4316;53.840;10.762;2023-05-10T04:31:08;12.43;;;3.80;;
8556;SDS011;4316;53.840;10.762;2023-05-10T04:33:34;7.07;;;3.93;;
8556;SDS011;4316;53.840;10.762;2023-05-10T04:36:00;7.63;;;3.60;;
8556;SDS011;4316;53.840;10.762;2023-05-10T04:38:26;13.50;;;3.80;;
8556;SDS011;4316;53.840;10.762;2023-05-10T04:40:52;4.27;;;3.70;;
8556;SDS011;4316;53.840;10.762;2023-05-10T04:43:18;5.60;;;3.63;;
8556;SDS011;4316;53.840;10.762;2023-05-10T04:45:44;7.43;;;4.30;;
8556;SDS011;4316;53.840;10.762;2023-05-10T04:48:10;9.57;;;4.07;;
8556;SDS011;4316;53.840;10.762;2023-05-10T04:50:35;7.07;;;3.80;;
8556;SDS011;4316;53.840;10.762;2023-05-10T04:53:01;5.87;;;3.63;;
8556;SDS011;4316;53.840;10.762;2023-05-10T04:55:27;4.30;;;3.90;;
8556;SDS011;4316;53.840;10.762;2023-05-10T04:57:52;5.23;;;3.50;;
8556;SDS011;4316;53.840;10.762;2023-05-10T05:00:21;7.97;;;4.00;;
8556;SDS011;4316;53.840;10.762;2023-05-10T05:02:47;4.53;;;3.23;;
8556;SDS011;4316;53.840;10.762;2023-05-10T05:05:12;4.33;;;3.53;;
8556;SDS011;4316;53.840;10.762;2023-05-10T05:07:38;8.63;;;3.70;;
8556;SDS011;4316;53.840;10.762;2023-05-10T05:10:07;10.83;;;4.10;;
8556;SDS011;4316;53.840;10.762;2023-05-10T05:12:33;9.97;;;3.90;;
8556;SDS011;4316;53.840;10.762;2023-05-10T05:15:00;7.53;;;3.70;;
8556;SDS011;4316;53.840;10.762;2023-05-10T05:17:26;7.67;;;4.57;;
8556;SDS011;4316;53.840;10.762;2023-05-10T05:19:51;6.90;;;3.40;;
8556;SDS011;4316;53.840;10.762;2023-05-10T05:22:17;4.00;;;3.60;;
8556;SDS011;4316;53.840;10.762;2023-05-10T05:24:44;7.87;;;3.87;;
8556;SDS011;4316;53.840;10.762;2023-05-10T05:27:10;12.90;;;3.80;;
8556;SDS011;4316;53.840;10.762;2023-05-10T05:29:35;6.87;;;5.40;;
8556;SDS011;4316;53.840;10.762;2023-05-10T05:32:01;3.63;;;3.27;;
8556;SDS011;4316;53.840;10.762;2023-05-10T05:34:26;10.03;;;3.80;;
8556;SDS011;4316;53.840;10.762;2023-05-10T05:36:52;4.37;;;3.40;;
8556;SDS011;4316;53.840;10.762;2023-05-10T05:39:18;5.90;;;3.57;;
8556;SDS011;4316;53.840;10.762;2023-05-10T05:41:44;3.60;;;3.27;;
8556;SDS011;4316;53.840;10.762;2023-05-10T05:44:09;6.27;;;3.43;;
8556;SDS011;4316;53.840;10.762;2023-05-10T05:46:35;7.83;;;3.43;;
8556;SDS011;4316;53.840;10.762;2023-05-10T05:49:00;5.40;;;3.43;;
8556;SDS011;4316;53.840;10.762;2023-05-10T05:51:26;7.00;;;3.90;;
8556;SDS011;4316;53.840;10.762;2023-05-10T05:53:52;6.43;;;4.07;;
8556;SDS011;4316;53.840;10.762;2023-05-10T05:56:17;3.50;;;3.20;;
8556;SDS011;4316;53.840;10.762;2023-05-10T05:58:49;11.37;;;3.47;;
8556;SDS011;4316;53.840;10.762;2023-05-10T06:01:17;5.40;;;3.73;;
8556;SDS011;4316;53.840;10.762;2023-05-10T06:03:43;5.87;;;2.97;;
8556;SDS011;4316;53.840;10.762;2023-05-10T06:06:08;3.23;;;3.03;;
8556;SDS011;4316;53.840;10.762;2023-05-10T06:08:34;6.73;;;3.50;;
8556;SDS011;4316;53.840;10.762;2023-05-10T06:11:00;4.10;;;3.60;;
8556;SDS011;4316;53.840;10.762;2023-05-10T06:13:26;4.20;;;3.40;;
8556;SDS011;4316;53.840;10.762;2023-05-10T06:15:57;6.73;;;3.37;;
8556;SDS011;4316;53.840;10.762;2023-05-10T06:18:23;3.90;;;3.40;;
8556;SDS011;4316;53.840;10.762;2023-05-10T06:20:49;4.60;;;3.13;;
8556;SDS011;4316;53.840;10.762;2023-05-10T06:23:15;10.57;;;3.73;;
8556;SDS011;4316;53.840;10.762;2023-05-10T06:25:40;4.13;;;3.27;;
8556;SDS011;4316;53.840;10.762;2023-05-10T06:28:06;7.43;;;3.33;;
8556;SDS011;4316;53.840;10.762;2023-05-10T06:30:32;5.80;;;3.20;;
8556;SDS011;4316;53.840;10.762;2023-05-10T06:32:57;7.27;;;3.50;;
8556;SDS011;4316;53.840;10.762;2023-05-10T06:35:23;4.23;;;3.63;;
8556;SDS011;4316;53.840;10.762;2023-05-10T06:37:49;8.00;;;3.90;;
8556;SDS011;4316;53.840;10.762;2023-05-10T06:40:15;3.87;;;3.40;;
8556;SDS011;4316;53.840;10.762;2023-05-10T06:42:41;7.33;;;3.83;;
8556;SDS011;4316;53.840;10.762;2023-05-10T06:45:07;3.27;;;2.97;;
8556;SDS011;4316;53.840;10.762;2023-05-10T06:47:33;3.43;;;3.13;;
8556;SDS011;4316;53.840;10.762;2023-05-10T06:49:59;6.63;;;3.80;;
8556;SDS011;4316;53.840;10.762;2023-05-10T06:52:24;4.77;;;3.73;;
8556;SDS011;4316;53.840;10.762;2023-05-10T06:54:50;7.17;;;3.43;;
8556;SDS011;4316;53.840;10.762;2023-05-10T06:57:16;5.90;;;3.40;;
8556;SDS011;4316;53.840;10.762;2023-05-10T06:59:42;4.80;;;3.70;;
8556;SDS011;4316;53.840;10.762;2023-05-10T07:02:08;7.23;;;3.87;;
8556;SDS011;4316;53.840;10.762;2023-05-10T07:04:34;5.00;;;3.17;;
8556;SDS011;4316;53.840;10.762;2023-05-10T07:06:59;4.90;;;3.40;;
8556;SDS011;4316;53.840;10.762;2023-05-10T07:09:25;3.70;;;3.30;;
8556;SDS011;4316;53.840;10.762;2023-05-10T07:11:50;3.83;;;3.53;;
8556;SDS011;4316;53.840;10.762;2023-05-10T07:14:16;10.33;;;3.23;;
8556;SDS011;4316;53.840;10.762;2023-05-10T07:16:41;6.67;;;3.47;;
8556;SDS011;4316;53.840;10.762;2023-05-10T07:19:07;3.97;;;2.93;;
8556;SDS011;4316;53.840;10.762;2023-05-10T07:21:32;5.27;;;3.73;;
8556;SDS011;4316;53.840;10.762;2023-05-10T07:23:58;7.83;;;3.97;;
8556;SDS011;4316;53.840;10.762;2023-05-10T07:26:25;7.10;;;3.30;;
8556;SDS011;4316;53.840;10.762;2023-05-10T07:28:50;4.87;;;3.30;;
8556;SDS011;4316;53.840;10.762;2023-05-10T07:31:16;10.33;;;3.80;;
8556;SDS011;4316;53.840;10.762;2023-05-10T07:33:41;6.57;;;3.10;;
8556;SDS011;4316;53.840;10.762;2023-05-10T07:36:07;8.40;;;3.67;;
8556;SDS011;4316;53.840;10.762;2023-05-10T07:38:33;8.67;;;3.37;;
8556;SDS011;4316;53.840;10.762;2023-05-10T07:40:58;4.57;;;2.90;;
8556;SDS011;4316;53.840;10.762;2023-05-10T07:43:24;6.37;;;2.90;;
8556;SDS011;4316;53.840;10.762;2023-05-10T07:45:50;5.20;;;3.20;;
8556;SDS011;4316;53.840;10.762;2023-05-10T07:48:15;4.20;;;3.07;;
8556;SDS011;4316;53.840;10.762;2023-05-10T07:50:41;6.10;;;3.33;;
8556;SDS011;4316;53.840;10.762;2023-05-10T07:53:06;13.57;;;3.77;;
8556;SDS011;4316;53.840;10.762;2023-05-10T07:55:32;3.22;;;2.95;;
8556;SDS011;4316;53.840;10.762;2023-05-10T07:57:58;5.60;;;3.17;;
8556;SDS011;4316;53.840;10.762;2023-05-10T08:00:26;4.18;;;2.88;;
8556;SDS011;4316;53.840;10.762;2023-05-10T08:02:51;6.63;;;3.20;;
8556;SDS011;4316;53.840;10.762;2023-05-10T08:05:17;7.97;;;3.13;;
8556;SDS011;4316;53.840;10.762;2023-05-10T08:07:43;7.53;;;3.08;;
8556;SDS011;4316;53.840;10.762;2023-05-10T08:10:09;4.65;;;3.13;;
8556;SDS011;4316;53.840;10.762;2023-05-10T08:12:36;4.05;;;3.00;;
8556;SDS011;4316;53.840;10.762;2023-05-10T08:15:02;3.38;;;3.10;;
8556;SDS011;4316;53.840;10.762;2023-05-10T08:17:28;3.27;;;2.67;;
8556;SDS011;4316;53.840;10.762;2023-05-10T08:19:54;3.03;;;2.83;;
8556;SDS011;4316;53.840;10.762;2023-05-10T08:22:19;3.47;;;3.17;;
8556;SDS011;4316;53.840;10.762;2023-05-10T08:24:45;6.53;;;3.13;;
8556;SDS011;4316;53.840;10.762;2023-05-10T08:27:11;7.00;;;3.33;;
8556;SDS011;4316;53.840;10.762;2023-05-10T08:29:37;7.97;;;3.67;;
8556;SDS011;4316;53.840;10.762;2023-05-10T08:32:03;10.53;;;3.43;;
8556;SDS011;4316;53.840;10.762;2023-05-10T08:34:28;5.40;;;3.40;;
8556;SDS011;4316;53.840;10.762;2023-05-10T08:36:56;6.30;;;3.38;;
8556;SDS011;4316;53.840;10.762;2023-05-10T08:39:21;5.30;;;3.77;;
8556;SDS011;4316;53.840;10.762;2023-05-10T08:41:48;4.95;;;3.13;;
8556;SDS011;4316;53.840;10.762;2023-05-10T08:44:18;8.17;;;3.27;;
8556;SDS011;4316;53.840;10.762;2023-05-10T08:46:45;13.67;;;3.73;;
8556;SDS011;4316;53.840;10.762;2023-05-10T08:49:13;6.57;;;3.20;;
8556;SDS011;4316;53.840;10.762;2023-05-10T08:51:40;13.00;;;3.20;;
8556;SDS011;4316;53.840;10.762;2023-05-10T08:54:12;4.13;;;3.25;;
8556;SDS011;4316;53.840;10.762;2023-05-10T08:56:38;3.75;;;3.25;;
8556;SDS011;4316;53.840;10.762;2023-05-10T08:59:03;15.10;;;4.60;;
8556;SDS011;4316;53.840;10.762;2023-05-10T09:01:29;3.03;;;2.72;;
8556;SDS011;4316;53.840;10.762;2023-05-10T09:03:57;8.68;;;3.47;;
8556;SDS011;4316;53.840;10.762;2023-05-10T09:06:23;5.32;;;3.78;;
8556;SDS011;4316;53.840;10.762;2023-05-10T09:08:49;5.13;;;3.65;;
8556;SDS011;4316;53.840;10.762;2023-05-10T09:11:15;6.63;;;3.30;;
8556;SDS011;4316;53.840;10.762;2023-05-10T09:13:42;9.68;;;2.97;;
8556;SDS011;4316;53.840;10.762;2023-05-10T09:16:08;8.52;;;3.80;;
8556;SDS011;4316;53.840;10.762;2023-05-10T09:18:34;5.68;;;2.78;;
8556;SDS011;4316;53.840;10.762;2023-05-10T09:21:00;8.13;;;3.30;;
8556;SDS011;4316;53.840;10.762;2023-05-10T09:23:26;4.72;;;3.65;;
8556;SDS011;4316;53.840;10.762;2023-05-10T09:26:04;7.78;;;2.83;;
8556;SDS011;4316;53.840;10.762;2023-05-10T09:28:33;4.18;;;3.38;;
8556;SDS011;4316;53.840;10.762;2023-05-10T09:31:14;7.45;;;3.50;;
8556;SDS011;4316;53.840;10.762;2023-05-10T09:33:43;7.13;;;3.38;;
8556;SDS011;4316;53.840;10.762;2023-05-10T09:36:11;9.75;;;3.30;;
8556;SDS011;4316;53.840;10.762;2023-05-10T09:38:49;6.68;;;3.28;;
8556;SDS011;4316;53.840;10.762;2023-05-10T09:41:18;3.47;;;3.15;;
8556;SDS011;4316;53.840;10.762;2023-05-10T09:43:46;5.18;;;3.50;;
8556;SDS011;4316;53.840;10.762;2023-05-10T09:46:12;3.70;;;3.22;;
8556;SDS011;4316;53.840;10.762;2023-05-10T09:48:42;7.03;;;3.63;;
8556;SDS011;4316;53.840;10.762;2023-05-10T09:51:10;6.18;;;3.17;;
8556;SDS011;4316;53.840;10.762;2023-05-10T09:53:35;9.38;;;3.88;;
8556;SDS011;4316;53.840;10.762;2023-05-10T09:56:01;8.55;;;3.30;;
8556;SDS011;4316;53.840;10.762;2023-05-10T09:58:27;3.47;;;3.17;;
8556;SDS011;4316;53.840;10.762;2023-05-10T10:00:52;8.63;;;3.13;;
8556;SDS011;4316;53.840;10.762;2023-05-10T10:03:21;7.03;;;3.45;;
8556;SDS011;4316;53.840;10.762;2023-05-10T10:05:48;8.68;;;3.22;;
8556;SDS011;4316;53.840;10.762;2023-05-10T10:08:14;7.65;;;3.13;;
8556;SDS011;4316;53.840;10.762;2023-05-10T10:10:41;7.68;;;3.05;;
8556;SDS011;4316;53.840;10.762;2023-05-10T10:13:09;4.47;;;2.92;;
8556;SDS011;4316;53.840;10.762;2023-05-10T10:15:34;14.52;;;3.45;;
8556;SDS011;4316;53.840;10.762;2023-05-10T10:18:00;9.82;;;2.90;;
8556;SDS011;4316;53.840;10.762;2023-05-10T10:20:28;3.60;;;3.30;;
8556;SDS011;4316;53.840;10.762;2023-05-10T10:22:54;4.93;;;2.97;;
8556;SDS011;4316;53.840;10.762;2023-05-10T10:25:20;7.85;;;2.72;;
8556;SDS011;4316;53.840;10.762;2023-05-10T10:30:21;5.68;;;2.90;;
8556;SDS011;4316;53.840;10.762;2023-05-10T10:35:33;8.00;;;2.83;;
8556;SDS011;4316;53.840;10.762;2023-05-10T10:37:59;4.90;;;2.67;;
8556;SDS011;4316;53.840;10.762;2023-05-10T10:40:29;4.00;;;3.33;;
8556;SDS011;4316;53.840;10.762;2023-05-10T10:42:59;5.00;;;3.38;;
8556;SDS011;4316;53.840;10.762;2023-05-10T10:46:09;7.68;;;2.95;;
8556;SDS011;4316;53.840;10.762;2023-05-10T10:48:40;8.70;;;3.13;;
8556;SDS011;4316;53.840;10.762;2023-05-10T10:51:11;4.50;;;3.08;;
8556;SDS011;4316;53.840;10.762;2023-05-10T10:53:38;3.13;;;2.72;;
8556;SDS011;4316;53.840;10.762;2023-05-10T10:56:09;5.90;;;3.20;;
8556;SDS011;4316;53.840;10.762;2023-05-10T10:58:37;7.38;;;3.08;;
8556;SDS011;4316;53.840;10.762;2023-05-10T11:01:16;11.20;;;8.07;;
8556;SDS011;4316;53.840;10.762;2023-05-10T11:04:43;6.15;;;3.05;;
8556;SDS011;4316;53.840;10.762;2023-05-10T11:06:37;4.03;;;3.08;;
8556;SDS011;4316;53.840;10.762;2023-05-10T11:09:05;4.70;;;3.13;;
8556;SDS011;4316;53.840;10.762;2023-05-10T11:11:33;10.80;;;3.00;;
8556;SDS011;4316;53.840;10.762;2023-05-10T11:14:06;4.00;;;2.55;;
8556;SDS011;4316;53.840;10.762;2023-05-10T11:16:53;3.83;;;3.10;;
8556;SDS011;4316;53.840;10.762;2023-05-10T11:19:18;8.07;;;3.15;;
8556;SDS011;4316;53.840;10.762;2023-05-10T11:21:51;4.50;;;3.17;;
8556;SDS011;4316;53.840;10.762;2023-05-10T11:24:38;9.07;;;3.45;;
8556;SDS011;4316;53.840;10.762;2023-05-10T11:27:03;4.85;;;3.15;;
8556;SDS011;4316;53.840;10.762;2023-05-10T11:29:30;9.63;;;3.17;;
8556;SDS011;4316;53.840;10.762;2023-05-10T11:31:59;7.82;;;3.30;;
8556;SDS011;4316;53.840;10.762;2023-05-10T11:36:52;8.20;;;3.10;;
8556;SDS011;4316;53.840;10.762;2023-05-10T11:39:19;9.50;;;3.42;;
8556;SDS011;4316;53.840;10.762;2023-05-10T11:41:46;3.83;;;2.72;;
8556;SDS011;4316;53.840;10.762;2023-05-10T11:44:13;4.70;;;3.50;;
8556;SDS011;4316;53.840;10.762;2023-05-10T11:46:39;3.42;;;3.08;;
8556;SDS011;4316;53.840;10.762;2023-05-10T11:49:07;3.47;;;2.95;;
8556;SDS011;4316;53.840;10.762;2023-05-10T11:51:33;7.40;;;3.53;;
8556;SDS011;4316;53.840;10.762;2023-05-10T11:54:04;6.38;;;3.47;;
8556;SDS011;4316;53.840;10.762;2023-05-10T11:56:33;9.15;;;3.53;;
8556;SDS011;4316;53.840;10.762;2023-05-10T11:58:59;5.78;;;3.20;;
8556;SDS011;4316;53.840;10.762;2023-05-10T12:01:27;4.38;;;3.15;;
8556;SDS011;4316;53.840;10.762;2023-05-10T12:03:54;8.07;;;2.95;;
8556;SDS011;4316;53.840;10.762;2023-05-10T12:06:25;10.95;;;2.78;;
8556;SDS011;4316;53.840;10.762;2023-05-10T12:08:52;13.07;;;3.13;;
8556;SDS011;4316;53.840;10.762;2023-05-10T12:11:18;6.38;;;2.88;;
8556;SDS011;4316;53.840;10.762;2023-05-10T12:13:45;5.53;;;2.65;;
8556;SDS011;4316;53.840;10.762;2023-05-10T12:16:18;3.13;;;2.92;;
8556;SDS011;4316;53.840;10.762;2023-05-10T12:18:49;3.95;;;2.92;;
8556;SDS011;4316;53.840;10.762;2023-05-10T12:21:20;4.90;;;2.63;;
8556;SDS011;4316;53.840;10.762;2023-05-10T12:23:46;2.70;;;2.50;;
8556;SDS011;4316;53.840;10.762;2023-05-10T12:26:14;2.67;;;2.38;;
8556;SDS011;4316;53.840;10.762;2023-05-10T12:28:40;9.73;;;3.20;;
8556;SDS011;4316;53.840;10.762;2023-05-10T12:31:06;3.58;;;2.72;;
8556;SDS011;4316;53.840;10.762;2023-05-10T12:33:38;7.15;;;2.80;;
8556;SDS011;4316;53.840;10.762;2023-05-10T12:36:10;7.15;;;2.83;;
8556;SDS011;4316;53.840;10.762;2023-05-10T12:41:43;4.18;;;2.70;;
8556;SDS011;4316;53.840;10.762;2023-05-10T12:44:08;5.07;;;2.95;;
8556;SDS011;4316;53.840;10.762;2023-05-10T12:46:34;8.40;;;3.28;;
8556;SDS011;4316;53.840;10.762;2023-05-10T12:49:00;4.95;;;3.33;;
8556;SDS011;4316;53.840;10.762;2023-05-10T12:51:25;8.23;;;3.60;;
8556;SDS011;4316;53.840;10.762;2023-05-10T12:53:51;4.22;;;3.83;;
8556;SDS011;4316;53.840;10.762;2023-05-10T12:56:16;9.57;;;3.50;;
8556;SDS011;4316;53.840;10.762;2023-05-10T12:58:42;5.78;;;3.33;;
8556;SDS011;4316;53.840;10.762;2023-05-10T13:01:12;6.15;;;3.63;;
8556;SDS011;4316;53.840;10.762;2023-05-10T13:03:38;7.13;;;3.63;;
8556;SDS011;4316;53.840;10.762;2023-05-10T13:06:04;3.95;;;3.55;;
8556;SDS011;4316;53.840;10.762;2023-05-10T13:08:31;8.73;;;3.80;;
8556;SDS011;4316;53.840;10.762;2023-05-10T13:11:01;5.28;;;3.88;;
8556;SDS011;4316;53.840;10.762;2023-05-10T13:13:28;4.15;;;3.67;;
8556;SDS011;4316;53.840;10.762;2023-05-10T13:15:53;4.60;;;4.20;;
8556;SDS011;4316;53.840;10.762;2023-05-10T13:18:19;5.03;;;4.55;;
8556;SDS011;4316;53.840;10.762;2023-05-10T13:20:45;4.78;;;4.25;;
8556;SDS011;4316;53.840;10.762;2023-05-10T13:23:10;10.90;;;4.60;;
8556;SDS011;4316;53.840;10.762;2023-05-10T13:25:36;7.82;;;4.30;;
8556;SDS011;4316;53.840;10.762;2023-05-10T13:28:02;13.45;;;4.75;;
8556;SDS011;4316;53.840;10.762;2023-05-10T13:30:27;7.43;;;5.05;;
8556;SDS011;4316;53.840;10.762;2023-05-10T13:32:54;9.95;;;4.50;;
8556;SDS011;4316;53.840;10.762;2023-05-10T13:35:20;7.18;;;5.22;;
8556;SDS011;4316;53.840;10.762;2023-05-10T13:37:45;7.47;;;4.47;;
8556;SDS011;4316;53.840;10.762;2023-05-10T13:40:11;5.55;;;4.88;;
8556;SDS011;4316;53.840;10.762;2023-05-10T13:42:37;9.50;;;4.80;;
8556;SDS011;4316;53.840;10.762;2023-05-10T13:45:02;8.32;;;5.00;;
8556;SDS011;4316;53.840;10.762;2023-05-10T13:47:28;6.63;;;4.70;;
8556;SDS011;4316;53.840;10.762;2023-05-10T13:49:54;8.07;;;5.30;;
8556;SDS011;4316;53.840;10.762;2023-05-10T13:52:21;6.05;;;4.80;;
8556;SDS011;4316;53.840;10.762;2023-05-10T13:54:46;6.18;;;5.30;;
8556;SDS011;4316;53.840;10.762;2023-05-10T13:57:12;6.03;;;5.25;;
8556;SDS011;4316;53.840;10.762;2023-05-10T13:59:38;5.45;;;4.90;;
8556;SDS011;4316;53.840;10.762;2023-05-10T14:02:04;6.95;;;5.35;;
8556;SDS011;4316;53.840;10.762;2023-05-10T14:04:30;8.18;;;5.00;;
8556;SDS011;4316;53.840;10.762;2023-05-10T14:06:56;6.03;;;5.13;;
8556;SDS011;4316;53.840;10.762;2023-05-10T14:09:22;6.13;;;4.82;;
8556;SDS011;4316;53.840;10.762;2023-05-10T14:11:48;7.47;;;4.47;;
8556;SDS011;4316;53.840;10.762;2023-05-10T14:14:13;7.53;;;4.00;;
8556;SDS011;4316;53.840;10.762;2023-05-10T14:16:41;11.07;;;4.72;;
8556;SDS011;4316;53.840;10.762;2023-05-10T14:19:08;5.78;;;4.75;;
8556;SDS011;4316;53.840;10.762;2023-05-10T14:21:34;6.45;;;4.20;;
8556;SDS011;4316;53.840;10.762;2023-05-10T14:24:00;5.38;;;3.92;;
8556;SDS011;4316;53.840;10.762;2023-05-10T14:26:25;4.78;;;4.38;;
8556;SDS011;4316;53.840;10.762;2023-05-10T14:28:52;7.68;;;5.70;;
8556;SDS011;4316;53.840;10.762;2023-05-10T14:31:18;6.95;;;4.30;;
8556;SDS011;4316;53.840;10.762;2023-05-10T14:33:45;11.57;;;4.45;;
8556;SDS011;4316;53.840;10.762;2023-05-10T14:36:11;5.57;;;5.05;;
8556;SDS011;4316;53.840;10.762;2023-05-10T14:38:37;10.48;;;4.65;;
8556;SDS011;4316;53.840;10.762;2023-05-10T14:41:03;5.13;;;4.68;;
8556;SDS011;4316;53.840;10.762;2023-05-10T14:43:28;5.60;;;4.70;;
8556;SDS011;4316;53.840;10.762;2023-05-10T14:45:55;5.20;;;4.70;;
8556;SDS011;4316;53.840;10.762;2023-05-10T14:48:20;5.70;;;4.30;;
8556;SDS011;4316;53.840;10.762;2023-05-10T14:50:46;4.88;;;4.35;;
8556;SDS011;4316;53.840;10.762;2023-05-10T14:53:12;5.82;;;4.75;;
8556;SDS011;4316;53.840;10.762;2023-05-10T14:55:37;5.95;;;4.40;;
8556;SDS011;4316;53.840;10.762;2023-05-10T14:58:04;6.35;;;4.47;;
8556;SDS011;4316;53.840;10.762;2023-05-10T15:00:30;7.10;;;4.63;;
8556;SDS011;4316;53.840;10.762;2023-05-10T15:02:56;5.15;;;4.53;;
8556;SDS011;4316;53.840;10.762;2023-05-10T15:05:22;4.93;;;4.43;;
8556;SDS011;4316;53.840;10.762;2023-05-10T15:07:48;5.10;;;4.70;;
8556;SDS011;4316;53.840;10.762;2023-05-10T15:10:13;5.88;;;4.40;;
8556;SDS011;4316;53.840;10.762;2023-05-10T15:12:39;6.78;;;4.90;;
8556;SDS011;4316;53.840;10.762;2023-05-10T15:15:05;5.10;;;4.65;;
8556;SDS011;4316;53.840;10.762;2023-05-10T15:17:31;8.18;;;4.75;;
8556;SDS011;4316;53.840;10.762;2023-05-10T15:19:57;8.15;;;4.57;;
8556;SDS011;4316;53.840;10.762;2023-05-10T15:22:23;7.38;;;4.95;;
8556;SDS011;4316;53.840;10.762;2023-05-10T15:24:48;6.22;;;5.15;;
8556;SDS011;4316;53.840;10.762;2023-05-10T15:27:14;6.22;;;4.85;;
8556;SDS011;4316;53.840;10.762;2023-05-10T15:29:40;5.20;;;4.70;;